EWG543 EDDK-LDZA
Flight info
| Callsign | EWG543 |
|---|---|
| Flight time | 1h 19m |
| Altitude | 39000 |
| Route | KUMIK6D KUMIK L603 TESGA DCT ESATI DCT OSBIT DCT TENLO DCT LAMSI DCT LNZ DCT EPOLA DCT GOLVA DCT MIRSO DCT PETOV PETOV2Z |
| Aircraft | A20N/M-SDE2E3FGHIRWXY/LB1 |
Departure
| Time | 2026-04-23 19:27 |
|---|---|
| Airport | Cologne Bonn Airport (EDDK) |
Arrival
| Time | 2026-04-23 20:47 |
|---|---|
| Airport | Zagreb Franjo Tuđman International Airport (LDZA) |
| Time | Latitude | Longitude | Altitude | Speed | Heading |
|---|---|---|---|---|---|
| 2026-04-23 19:02 | 50.88200 | 7.11905 | 235 ft | 0 kts | 216° |
| 2026-04-23 19:14 | 50.88206 | 7.11912 | 234 ft | 3 kts | 216° |
| 2026-04-23 19:15 | 50.88221 | 7.11930 | 236 ft | 3 kts | 216° |
| 2026-04-23 19:15 | 50.88236 | 7.11946 | 237 ft | 3 kts | 185° |
| 2026-04-23 19:15 | 50.88253 | 7.11942 | 235 ft | 0 kts | 128° |
| 2026-04-23 19:17 | 50.88253 | 7.11943 | 235 ft | 0 kts | 128° |
| 2026-04-23 19:17 | 50.88251 | 7.11945 | 235 ft | 0 kts | 128° |
| 2026-04-23 19:17 | 50.88249 | 7.11950 | 235 ft | 1 kts | 128° |
| 2026-04-23 19:17 | 50.88219 | 7.12010 | 236 ft | 13 kts | 128° |
| 2026-04-23 19:18 | 50.88147 | 7.12167 | 233 ft | 22 kts | 126° |
| 2026-04-23 19:18 | 50.88076 | 7.12371 | 233 ft | 20 kts | 129° |
| 2026-04-23 19:18 | 50.87981 | 7.12525 | 236 ft | 20 kts | 137° |
| 2026-04-23 19:18 | 50.87866 | 7.12610 | 233 ft | 19 kts | 178° |
| 2026-04-23 19:19 | 50.87673 | 7.12838 | 234 ft | 18 kts | 138° |
| 2026-04-23 19:19 | 50.87582 | 7.12969 | 233 ft | 18 kts | 136° |
| 2026-04-23 19:20 | 50.87408 | 7.13222 | 237 ft | 17 kts | 137° |
| 2026-04-23 19:20 | 50.87302 | 7.13375 | 238 ft | 23 kts | 136° |
| 2026-04-23 19:20 | 50.87172 | 7.13563 | 242 ft | 26 kts | 137° |
| 2026-04-23 19:20 | 50.87049 | 7.13742 | 245 ft | 22 kts | 137° |
| 2026-04-23 19:21 | 50.86939 | 7.13903 | 246 ft | 21 kts | 137° |
| 2026-04-23 19:21 | 50.86759 | 7.14154 | 255 ft | 11 kts | 162° |
| 2026-04-23 19:21 | 50.86709 | 7.14183 | 257 ft | 6 kts | 149° |
| 2026-04-23 19:22 | 50.86666 | 7.14235 | 260 ft | 10 kts | 138° |
| 2026-04-23 19:22 | 50.86597 | 7.14331 | 261 ft | 17 kts | 139° |
| 2026-04-23 19:22 | 50.86365 | 7.14664 | 267 ft | 27 kts | 139° |
| 2026-04-23 19:23 | 50.86267 | 7.14796 | 272 ft | 29 kts | 140° |
| 2026-04-23 19:23 | 50.86078 | 7.15085 | 277 ft | 27 kts | 137° |
| 2026-04-23 19:23 | 50.85944 | 7.15279 | 282 ft | 25 kts | 138° |
| 2026-04-23 19:24 | 50.85715 | 7.15611 | 297 ft | 21 kts | 138° |
| 2026-04-23 19:24 | 50.85606 | 7.15772 | 300 ft | 22 kts | 138° |
| 2026-04-23 19:24 | 50.85377 | 7.16109 | 307 ft | 23 kts | 131° |
| 2026-04-23 19:25 | 50.85417 | 7.16488 | 316 ft | 10 kts | 28° |
| 2026-04-23 19:25 | 50.85423 | 7.16492 | 317 ft | 0 kts | 23° |
| 2026-04-23 19:26 | 50.85475 | 7.16516 | 316 ft | 18 kts | 7° |
| 2026-04-23 19:26 | 50.85603 | 7.16448 | 313 ft | 0 kts | 317° |
| 2026-04-23 19:27 | 50.86032 | 7.15826 | 294 ft | 110 kts | 317° |
| 2026-04-23 19:27 | 50.88154 | 7.12738 | 1791 ft | 153 kts | 317° |
| 2026-04-23 19:28 | 50.90168 | 7.10491 | 2814 ft | 202 kts | 353° |
| 2026-04-23 19:28 | 50.92691 | 7.12489 | 4673 ft | 211 kts | 38° |
| 2026-04-23 19:29 | 50.93709 | 7.14239 | 5455 ft | 225 kts | 57° |
| 2026-04-23 19:29 | 50.95020 | 7.18293 | 6327 ft | 266 kts | 64° |
| 2026-04-23 19:30 | 50.96936 | 7.24660 | 8428 ft | 281 kts | 63° |
| 2026-04-23 19:30 | 50.97807 | 7.27468 | 9367 ft | 286 kts | 63° |
| 2026-04-23 19:30 | 50.99637 | 7.33305 | 10768 ft | 314 kts | 63° |
| 2026-04-23 19:31 | 51.00649 | 7.36535 | 11158 ft | 338 kts | 64° |
| 2026-04-23 19:31 | 51.01464 | 7.40117 | 11763 ft | 352 kts | 78° |
| 2026-04-23 19:31 | 51.01589 | 7.43984 | 12555 ft | 359 kts | 97° |
| 2026-04-23 19:31 | 51.01038 | 7.47878 | 13417 ft | 364 kts | 106° |
| 2026-04-23 19:32 | 51.00291 | 7.51736 | 14271 ft | 369 kts | 108° |
| 2026-04-23 19:32 | 50.99503 | 7.55646 | 15103 ft | 373 kts | 108° |
| 2026-04-23 19:32 | 50.98707 | 7.59608 | 15919 ft | 378 kts | 108° |
| 2026-04-23 19:32 | 50.97941 | 7.63449 | 16675 ft | 382 kts | 108° |
| 2026-04-23 19:33 | 50.97135 | 7.67512 | 17428 ft | 387 kts | 108° |
| 2026-04-23 19:33 | 50.96323 | 7.71607 | 18165 ft | 391 kts | 108° |
| 2026-04-23 19:33 | 50.94629 | 7.79941 | 19561 ft | 400 kts | 111° |
| 2026-04-23 19:34 | 50.93412 | 7.83923 | 20221 ft | 404 kts | 121° |
| 2026-04-23 19:34 | 50.91928 | 7.87663 | 20856 ft | 408 kts | 123° |
| 2026-04-23 19:34 | 50.88750 | 7.95230 | 22107 ft | 415 kts | 124° |
| 2026-04-23 19:35 | 50.87141 | 7.99050 | 22713 ft | 419 kts | 124° |
| 2026-04-23 19:35 | 50.85519 | 8.02906 | 23290 ft | 423 kts | 124° |
| 2026-04-23 19:35 | 50.83883 | 8.06795 | 23842 ft | 426 kts | 124° |
| 2026-04-23 19:35 | 50.82230 | 8.10725 | 24367 ft | 430 kts | 124° |
| 2026-04-23 19:36 | 50.80560 | 8.14687 | 24885 ft | 434 kts | 124° |
| 2026-04-23 19:36 | 50.78881 | 8.18668 | 25360 ft | 437 kts | 124° |
| 2026-04-23 19:36 | 50.77182 | 8.22689 | 25868 ft | 440 kts | 124° |
| 2026-04-23 19:36 | 50.75494 | 8.26680 | 26342 ft | 443 kts | 124° |
| 2026-04-23 19:37 | 50.73770 | 8.30750 | 26798 ft | 446 kts | 124° |
| 2026-04-23 19:37 | 50.72019 | 8.34822 | 27238 ft | 449 kts | 126° |
| 2026-04-23 19:37 | 50.70700 | 8.37440 | 27509 ft | 451 kts | 131° |
| 2026-04-23 19:37 | 50.67656 | 8.41906 | 28036 ft | 454 kts | 144° |
| 2026-04-23 19:38 | 50.65000 | 8.44636 | 28413 ft | 457 kts | 149° |
| 2026-04-23 19:38 | 50.62239 | 8.47143 | 28802 ft | 459 kts | 151° |
| 2026-04-23 19:38 | 50.59424 | 8.49539 | 29175 ft | 462 kts | 152° |
| 2026-04-23 19:38 | 50.56569 | 8.51897 | 29539 ft | 464 kts | 153° |
| 2026-04-23 19:39 | 50.53696 | 8.54253 | 29974 ft | 464 kts | 153° |
| 2026-04-23 19:39 | 50.50840 | 8.56603 | 30478 ft | 463 kts | 153° |
| 2026-04-23 19:39 | 50.48958 | 8.58160 | 30806 ft | 462 kts | 153° |
| 2026-04-23 19:39 | 50.45243 | 8.61553 | 31412 ft | 461 kts | 145° |
| 2026-04-23 19:40 | 50.42760 | 8.64646 | 31847 ft | 461 kts | 139° |
| 2026-04-23 19:40 | 50.40375 | 8.68005 | 32263 ft | 460 kts | 137° |
| 2026-04-23 19:40 | 50.38044 | 8.71449 | 32682 ft | 459 kts | 136° |
| 2026-04-23 19:40 | 50.35746 | 8.74925 | 33082 ft | 458 kts | 136° |
| 2026-04-23 19:41 | 50.33463 | 8.78403 | 33466 ft | 457 kts | 136° |
| 2026-04-23 19:41 | 50.31185 | 8.81871 | 33837 ft | 456 kts | 136° |
| 2026-04-23 19:41 | 50.28901 | 8.85331 | 34194 ft | 456 kts | 136° |
| 2026-04-23 19:41 | 50.26621 | 8.88767 | 34536 ft | 455 kts | 136° |
| 2026-04-23 19:42 | 50.25110 | 8.91034 | 34755 ft | 455 kts | 136° |
| 2026-04-23 19:42 | 50.22057 | 8.95601 | 35190 ft | 454 kts | 136° |
| 2026-04-23 19:42 | 50.19776 | 8.99002 | 35496 ft | 453 kts | 136° |
| 2026-04-23 19:42 | 50.17521 | 9.02360 | 35807 ft | 453 kts | 136° |
| 2026-04-23 19:43 | 50.15985 | 9.04644 | 36010 ft | 452 kts | 136° |
| 2026-04-23 19:43 | 50.12967 | 9.09127 | 36372 ft | 452 kts | 136° |
| 2026-04-23 19:43 | 50.10816 | 9.12711 | 36614 ft | 453 kts | 129° |
| 2026-04-23 19:43 | 50.09549 | 9.15380 | 36776 ft | 453 kts | 123° |
| 2026-04-23 19:44 | 50.08029 | 9.19666 | 36988 ft | 454 kts | 114° |
| 2026-04-23 19:44 | 50.06776 | 9.25883 | 37275 ft | 454 kts | 100° |
| 2026-04-23 19:44 | 50.06513 | 9.29116 | 37421 ft | 454 kts | 93° |
| 2026-04-23 19:44 | 50.06414 | 9.35692 | 37704 ft | 455 kts | 90° |
| 2026-04-23 19:45 | 50.06440 | 9.38956 | 37835 ft | 455 kts | 89° |
| 2026-04-23 19:45 | 50.06554 | 9.45560 | 38119 ft | 455 kts | 88° |
| 2026-04-23 19:45 | 50.06619 | 9.48829 | 38265 ft | 455 kts | 88° |
| 2026-04-23 19:45 | 50.06739 | 9.55350 | 38536 ft | 455 kts | 88° |
| 2026-04-23 19:46 | 50.06814 | 9.60285 | 38727 ft | 455 kts | 89° |
| 2026-04-23 19:46 | 50.06858 | 9.63548 | 38858 ft | 455 kts | 89° |
| 2026-04-23 19:46 | 50.06914 | 9.68496 | 38987 ft | 457 kts | 90° |
| 2026-04-23 19:46 | 50.06572 | 9.75081 | 38992 ft | 456 kts | 101° |
| 2026-04-23 19:47 | 50.06081 | 9.78259 | 38997 ft | 455 kts | 108° |
| 2026-04-23 19:47 | 50.02818 | 9.88446 | 38997 ft | 454 kts | 122° |
| 2026-04-23 19:48 | 49.99361 | 9.96678 | 38996 ft | 454 kts | 124° |
| 2026-04-23 19:48 | 49.95822 | 10.04828 | 38998 ft | 454 kts | 124° |
| 2026-04-23 19:49 | 49.92894 | 10.11614 | 39000 ft | 454 kts | 124° |
| 2026-04-23 19:49 | 49.89402 | 10.19762 | 38994 ft | 454 kts | 124° |
| 2026-04-23 19:50 | 49.85896 | 10.27950 | 38999 ft | 454 kts | 124° |
| 2026-04-23 19:50 | 49.82397 | 10.36100 | 38997 ft | 454 kts | 124° |
| 2026-04-23 19:51 | 49.78320 | 10.45561 | 38996 ft | 455 kts | 124° |
| 2026-04-23 19:51 | 49.75395 | 10.52327 | 39007 ft | 455 kts | 124° |
| 2026-04-23 19:52 | 49.71869 | 10.60458 | 38993 ft | 455 kts | 124° |
| 2026-04-23 19:52 | 49.68333 | 10.68589 | 38995 ft | 455 kts | 124° |
| 2026-04-23 19:53 | 49.64792 | 10.76705 | 39001 ft | 455 kts | 124° |
| 2026-04-23 19:53 | 49.61256 | 10.84785 | 39000 ft | 455 kts | 124° |
| 2026-04-23 19:54 | 49.57136 | 10.94168 | 39001 ft | 455 kts | 124° |
| 2026-04-23 19:54 | 49.54182 | 11.00877 | 38995 ft | 455 kts | 124° |
| 2026-04-23 19:55 | 49.52013 | 11.06465 | 39005 ft | 455 kts | 118° |
| 2026-04-23 19:55 | 49.48132 | 11.17989 | 39000 ft | 455 kts | 117° |
| 2026-04-23 19:56 | 49.45303 | 11.26634 | 38997 ft | 455 kts | 117° |
| 2026-04-23 19:56 | 49.42446 | 11.35329 | 39008 ft | 455 kts | 117° |
| 2026-04-23 19:57 | 49.39571 | 11.44017 | 39001 ft | 456 kts | 117° |
| 2026-04-23 19:57 | 49.36683 | 11.52700 | 38999 ft | 456 kts | 117° |
| 2026-04-23 19:58 | 49.33795 | 11.61350 | 38996 ft | 457 kts | 117° |
| 2026-04-23 19:58 | 49.30893 | 11.70013 | 39005 ft | 456 kts | 117° |
| 2026-04-23 19:59 | 49.27989 | 11.78652 | 38994 ft | 456 kts | 117° |
| 2026-04-23 19:59 | 49.25097 | 11.87229 | 39000 ft | 456 kts | 117° |
| 2026-04-23 20:00 | 49.22174 | 11.95868 | 39006 ft | 456 kts | 117° |
| 2026-04-23 20:00 | 49.19252 | 12.04474 | 39004 ft | 455 kts | 117° |
| 2026-04-23 20:01 | 49.16324 | 12.13067 | 38998 ft | 455 kts | 117° |
| 2026-04-23 20:01 | 49.13408 | 12.21599 | 38998 ft | 456 kts | 118° |
| 2026-04-23 20:02 | 49.10465 | 12.30182 | 38997 ft | 456 kts | 118° |
| 2026-04-23 20:02 | 49.07514 | 12.38758 | 38996 ft | 456 kts | 118° |
| 2026-04-23 20:03 | 49.04550 | 12.47343 | 38996 ft | 457 kts | 118° |
| 2026-04-23 20:03 | 49.01604 | 12.55847 | 39004 ft | 457 kts | 118° |
| 2026-04-23 20:04 | 48.98633 | 12.64395 | 39000 ft | 456 kts | 118° |
| 2026-04-23 20:04 | 48.95660 | 12.72924 | 38997 ft | 455 kts | 118° |
| 2026-04-23 20:05 | 48.92686 | 12.81423 | 38996 ft | 455 kts | 118° |
| 2026-04-23 20:05 | 48.89699 | 12.89933 | 38996 ft | 455 kts | 118° |
| 2026-04-23 20:06 | 48.86705 | 12.98436 | 39001 ft | 455 kts | 118° |
| 2026-04-23 20:06 | 48.83720 | 13.06883 | 39004 ft | 456 kts | 118° |
| 2026-04-23 20:07 | 48.80716 | 13.15360 | 39003 ft | 456 kts | 118° |
| 2026-04-23 20:07 | 48.77700 | 13.23840 | 39006 ft | 456 kts | 118° |
| 2026-04-23 20:08 | 48.74701 | 13.32245 | 38998 ft | 456 kts | 118° |
| 2026-04-23 20:08 | 48.71678 | 13.40689 | 39004 ft | 456 kts | 118° |
| 2026-04-23 20:09 | 48.68646 | 13.49134 | 39000 ft | 456 kts | 118° |
| 2026-04-23 20:09 | 48.65336 | 13.57296 | 39004 ft | 455 kts | 129° |
| 2026-04-23 20:10 | 48.61633 | 13.62922 | 39006 ft | 454 kts | 139° |
| 2026-04-23 20:10 | 48.55965 | 13.70086 | 39000 ft | 455 kts | 141° |
| 2026-04-23 20:11 | 48.51059 | 13.76041 | 39001 ft | 456 kts | 141° |
| 2026-04-23 20:11 | 48.46123 | 13.82051 | 38997 ft | 455 kts | 141° |
| 2026-04-23 20:12 | 48.41200 | 13.88074 | 38998 ft | 454 kts | 141° |
| 2026-04-23 20:12 | 48.36316 | 13.94052 | 38992 ft | 455 kts | 141° |
| 2026-04-23 20:13 | 48.31400 | 14.00056 | 39006 ft | 455 kts | 141° |
| 2026-04-23 20:13 | 48.26486 | 14.06039 | 39005 ft | 454 kts | 141° |
| 2026-04-23 20:14 | 48.21541 | 14.11946 | 38998 ft | 454 kts | 143° |
| 2026-04-23 20:14 | 48.16450 | 14.17533 | 38996 ft | 453 kts | 144° |
| 2026-04-23 20:15 | 48.11342 | 14.22994 | 38993 ft | 454 kts | 144° |
| 2026-04-23 20:15 | 48.06208 | 14.28501 | 38999 ft | 454 kts | 144° |
| 2026-04-23 20:16 | 48.01080 | 14.34023 | 38996 ft | 454 kts | 144° |
| 2026-04-23 20:16 | 47.95947 | 14.39550 | 38995 ft | 454 kts | 144° |
| 2026-04-23 20:17 | 47.90811 | 14.45067 | 38997 ft | 454 kts | 144° |
| 2026-04-23 20:17 | 47.85675 | 14.50570 | 38996 ft | 455 kts | 144° |
| 2026-04-23 20:18 | 47.80551 | 14.56044 | 38998 ft | 457 kts | 144° |
| 2026-04-23 20:18 | 47.75376 | 14.61558 | 38996 ft | 458 kts | 144° |
| 2026-04-23 20:19 | 47.70203 | 14.67058 | 39001 ft | 456 kts | 144° |
| 2026-04-23 20:19 | 47.65038 | 14.72536 | 38996 ft | 455 kts | 145° |
| 2026-04-23 20:20 | 47.59906 | 14.77965 | 39002 ft | 456 kts | 145° |
| 2026-04-23 20:20 | 47.54718 | 14.83440 | 39000 ft | 458 kts | 145° |
| 2026-04-23 20:21 | 47.50393 | 14.87992 | 38997 ft | 459 kts | 145° |
| 2026-04-23 20:21 | 47.44211 | 14.94219 | 38997 ft | 459 kts | 147° |
| 2026-04-23 20:22 | 47.38897 | 14.99413 | 39005 ft | 457 kts | 147° |
| 2026-04-23 20:22 | 47.34498 | 15.03706 | 38993 ft | 456 kts | 147° |
| 2026-04-23 20:23 | 47.28340 | 15.09728 | 39005 ft | 457 kts | 147° |
| 2026-04-23 20:23 | 47.23028 | 15.14920 | 38998 ft | 459 kts | 147° |
| 2026-04-23 20:24 | 47.17708 | 15.20109 | 38999 ft | 458 kts | 147° |
| 2026-04-23 20:24 | 47.12396 | 15.25275 | 38999 ft | 457 kts | 147° |
| 2026-04-23 20:25 | 47.07136 | 15.30380 | 38996 ft | 455 kts | 147° |
| 2026-04-23 20:25 | 47.01851 | 15.35495 | 39002 ft | 454 kts | 147° |
| 2026-04-23 20:26 | 46.96572 | 15.40593 | 38994 ft | 454 kts | 147° |
| 2026-04-23 20:26 | 46.91293 | 15.45677 | 38995 ft | 453 kts | 147° |
| 2026-04-23 20:27 | 46.86013 | 15.50751 | 39005 ft | 453 kts | 147° |
| 2026-04-23 20:27 | 46.80771 | 15.55777 | 39000 ft | 453 kts | 147° |
| 2026-04-23 20:28 | 46.75496 | 15.60822 | 38997 ft | 453 kts | 147° |
| 2026-04-23 20:28 | 46.70197 | 15.65827 | 38397 ft | 454 kts | 149° |
| 2026-04-23 20:28 | 46.67464 | 15.68186 | 37685 ft | 457 kts | 150° |
| 2026-04-23 20:29 | 46.64685 | 15.70464 | 36989 ft | 459 kts | 151° |
| 2026-04-23 20:29 | 46.61908 | 15.72689 | 36338 ft | 460 kts | 152° |
| 2026-04-23 20:29 | 46.59099 | 15.74930 | 35680 ft | 461 kts | 152° |
| 2026-04-23 20:29 | 46.56288 | 15.77178 | 35013 ft | 461 kts | 151° |
| 2026-04-23 20:30 | 46.53474 | 15.79441 | 34311 ft | 462 kts | 151° |
| 2026-04-23 20:30 | 46.47828 | 15.84006 | 32812 ft | 465 kts | 151° |
| 2026-04-23 20:30 | 46.45952 | 15.85525 | 32297 ft | 466 kts | 151° |
| 2026-04-23 20:31 | 46.42154 | 15.88596 | 31233 ft | 468 kts | 151° |
| 2026-04-23 20:31 | 46.39302 | 15.90898 | 30417 ft | 470 kts | 151° |
| 2026-04-23 20:31 | 46.36435 | 15.93209 | 29561 ft | 471 kts | 151° |
| 2026-04-23 20:31 | 46.33569 | 15.95517 | 28700 ft | 473 kts | 151° |
| 2026-04-23 20:32 | 46.31663 | 15.97048 | 28091 ft | 474 kts | 151° |
| 2026-04-23 20:32 | 46.28754 | 15.99348 | 27145 ft | 476 kts | 152° |
| 2026-04-23 20:32 | 46.24843 | 16.02406 | 25838 ft | 479 kts | 152° |
| 2026-04-23 20:32 | 46.21944 | 16.04666 | 25015 ft | 477 kts | 152° |
| 2026-04-23 20:33 | 46.19009 | 16.06954 | 24291 ft | 471 kts | 152° |
| 2026-04-23 20:33 | 46.16130 | 16.09195 | 23487 ft | 468 kts | 152° |
| 2026-04-23 20:33 | 46.13321 | 16.11380 | 22876 ft | 460 kts | 152° |
| 2026-04-23 20:33 | 46.10516 | 16.13560 | 22092 ft | 457 kts | 152° |
| 2026-04-23 20:34 | 46.07722 | 16.15684 | 21366 ft | 451 kts | 155° |
| 2026-04-23 20:34 | 46.04760 | 16.17085 | 20616 ft | 445 kts | 171° |
| 2026-04-23 20:34 | 46.01698 | 16.17196 | 19856 ft | 439 kts | 188° |
| 2026-04-23 20:34 | 45.98788 | 16.16002 | 19091 ft | 433 kts | 205° |
| 2026-04-23 20:35 | 45.96294 | 16.13618 | 18300 ft | 429 kts | 223° |
| 2026-04-23 20:35 | 45.94304 | 16.10482 | 17555 ft | 423 kts | 230° |
| 2026-04-23 20:35 | 45.92426 | 16.07263 | 16799 ft | 418 kts | 230° |
| 2026-04-23 20:35 | 45.90534 | 16.04116 | 16074 ft | 413 kts | 229° |
| 2026-04-23 20:36 | 45.88630 | 16.01057 | 15319 ft | 409 kts | 228° |
| 2026-04-23 20:36 | 45.86716 | 15.98055 | 14524 ft | 405 kts | 227° |
| 2026-04-23 20:36 | 45.84833 | 15.95144 | 13816 ft | 399 kts | 227° |
| 2026-04-23 20:36 | 45.82940 | 15.92243 | 13560 ft | 383 kts | 227° |
| 2026-04-23 20:37 | 45.81190 | 15.89576 | 13547 ft | 361 kts | 227° |
| 2026-04-23 20:37 | 45.80047 | 15.87837 | 13538 ft | 347 kts | 227° |
| 2026-04-23 20:37 | 45.77931 | 15.84626 | 13513 ft | 322 kts | 227° |
| 2026-04-23 20:37 | 45.76929 | 15.83108 | 13413 ft | 314 kts | 227° |
| 2026-04-23 20:38 | 45.74957 | 15.80123 | 13032 ft | 304 kts | 227° |
| 2026-04-23 20:38 | 45.73997 | 15.78672 | 12738 ft | 304 kts | 227° |
| 2026-04-23 20:38 | 45.72541 | 15.76473 | 12302 ft | 302 kts | 227° |
| 2026-04-23 20:38 | 45.70614 | 15.73566 | 11748 ft | 300 kts | 227° |
| 2026-04-23 20:39 | 45.69665 | 15.72136 | 11483 ft | 298 kts | 227° |
| 2026-04-23 20:39 | 45.68241 | 15.69992 | 11065 ft | 296 kts | 227° |
| 2026-04-23 20:39 | 45.66834 | 15.67888 | 10644 ft | 295 kts | 225° |
| 2026-04-23 20:39 | 45.65189 | 15.66171 | 10213 ft | 294 kts | 204° |
| 2026-04-23 20:40 | 45.63195 | 15.65690 | 9767 ft | 294 kts | 174° |
| 2026-04-23 20:40 | 45.61296 | 15.66697 | 9314 ft | 294 kts | 146° |
| 2026-04-23 20:40 | 45.59732 | 15.68564 | 8880 ft | 292 kts | 137° |
| 2026-04-23 20:40 | 45.57802 | 15.71221 | 8309 ft | 290 kts | 136° |
| 2026-04-23 20:41 | 45.56471 | 15.73374 | 7859 ft | 288 kts | 123° |
| 2026-04-23 20:41 | 45.55779 | 15.75997 | 7122 ft | 283 kts | 96° |
| 2026-04-23 20:41 | 45.56051 | 15.78748 | 6268 ft | 281 kts | 66° |
| 2026-04-23 20:41 | 45.57133 | 15.81043 | 5546 ft | 275 kts | 48° |
| 2026-04-23 20:42 | 45.57987 | 15.82327 | 5308 ft | 263 kts | 44° |
| 2026-04-23 20:42 | 45.59244 | 15.84087 | 5042 ft | 244 kts | 44° |
| 2026-04-23 20:42 | 45.60392 | 15.85768 | 4786 ft | 229 kts | 46° |
| 2026-04-23 20:42 | 45.61815 | 15.87920 | 4242 ft | 217 kts | 46° |
| 2026-04-23 20:43 | 45.62823 | 15.89451 | 3825 ft | 207 kts | 46° |
| 2026-04-23 20:43 | 45.63802 | 15.90939 | 3346 ft | 204 kts | 46° |
| 2026-04-23 20:43 | 45.64443 | 15.91914 | 3001 ft | 202 kts | 46° |
| 2026-04-23 20:43 | 45.65400 | 15.93369 | 2531 ft | 198 kts | 46° |
| 2026-04-23 20:44 | 45.66309 | 15.94751 | 2291 ft | 183 kts | 46° |
| 2026-04-23 20:44 | 45.67142 | 15.96015 | 2096 ft | 166 kts | 45° |
| 2026-04-23 20:44 | 45.67902 | 15.97167 | 1866 ft | 152 kts | 45° |
| 2026-04-23 20:44 | 45.68594 | 15.98218 | 1672 ft | 139 kts | 45° |
| 2026-04-23 20:45 | 45.69240 | 15.99200 | 1503 ft | 134 kts | 45° |
| 2026-04-23 20:45 | 45.69875 | 16.00166 | 1331 ft | 133 kts | 45° |
| 2026-04-23 20:45 | 45.70511 | 16.01134 | 1155 ft | 133 kts | 45° |
| 2026-04-23 20:45 | 45.71145 | 16.02097 | 984 ft | 133 kts | 45° |
| 2026-04-23 20:46 | 45.71769 | 16.03046 | 802 ft | 132 kts | 45° |
| 2026-04-23 20:46 | 45.72411 | 16.04002 | 630 ft | 132 kts | 45° |
| 2026-04-23 20:46 | 45.73025 | 16.04941 | 463 ft | 131 kts | 46° |
| 2026-04-23 20:46 | 45.73636 | 16.05878 | 366 ft | 121 kts | 46° |
| 2026-04-23 20:47 | 45.74075 | 16.06545 | 366 ft | 44 kts | 46° |
| 2026-04-23 20:47 | 45.74244 | 16.06800 | 368 ft | 28 kts | 46° |
| 2026-04-23 20:47 | 45.74344 | 16.06950 | 366 ft | 14 kts | 47° |
| 2026-04-23 20:47 | 45.74415 | 16.07059 | 370 ft | 26 kts | 47° |
| 2026-04-23 20:48 | 45.74603 | 16.07340 | 368 ft | 41 kts | 46° |
| 2026-04-23 20:48 | 45.74657 | 16.07546 | 360 ft | 20 kts | 137° |
| 2026-04-23 20:48 | 45.74550 | 16.07681 | 359 ft | 21 kts | 138° |
| 2026-04-23 20:48 | 45.74442 | 16.07827 | 355 ft | 22 kts | 136° |
| 2026-04-23 20:49 | 45.74342 | 16.07935 | 364 ft | 14 kts | 140° |
| 2026-04-23 20:49 | 45.74309 | 16.07979 | 366 ft | 2 kts | 136° |
| 2026-04-23 20:49 | 45.74300 | 16.07991 | 366 ft | 0 kts | 133° |